sensor_id;sensor_type;location;lat;lon;timestamp;P1;durP1;ratioP1;P2;durP2;ratioP2
8058;SDS011;4072;42.668;23.396;2023-03-19T00:00:39;12.87;;;6.93;;
8058;SDS011;4072;42.668;23.396;2023-03-19T00:03:07;12.83;;;7.33;;
8058;SDS011;4072;42.668;23.396;2023-03-19T00:05:35;11.17;;;7.50;;
8058;SDS011;4072;42.668;23.396;2023-03-19T00:08:06;15.33;;;8.43;;
8058;SDS011;4072;42.668;23.396;2023-03-19T00:10:36;10.23;;;7.97;;
8058;SDS011;4072;42.668;23.396;2023-03-19T00:13:04;12.57;;;8.03;;
8058;SDS011;4072;42.668;23.396;2023-03-19T00:15:32;10.30;;;7.60;;
8058;SDS011;4072;42.668;23.396;2023-03-19T00:18:00;11.07;;;6.83;;
8058;SDS011;4072;42.668;23.396;2023-03-19T00:20:28;7.80;;;6.70;;
8058;SDS011;4072;42.668;23.396;2023-03-19T00:22:56;10.50;;;7.63;;
8058;SDS011;4072;42.668;23.396;2023-03-19T00:25:26;12.47;;;7.23;;
8058;SDS011;4072;42.668;23.396;2023-03-19T00:27:54;10.47;;;6.87;;
8058;SDS011;4072;42.668;23.396;2023-03-19T00:30:21;11.40;;;7.30;;
8058;SDS011;4072;42.668;23.396;2023-03-19T00:32:49;11.20;;;7.23;;
8058;SDS011;4072;42.668;23.396;2023-03-19T00:35:17;13.37;;;7.77;;
8058;SDS011;4072;42.668;23.396;2023-03-19T00:37:45;12.47;;;7.30;;
8058;SDS011;4072;42.668;23.396;2023-03-19T00:40:14;11.07;;;8.47;;
8058;SDS011;4072;42.668;23.396;2023-03-19T00:42:43;15.80;;;9.37;;
8058;SDS011;4072;42.668;23.396;2023-03-19T00:45:11;11.17;;;8.43;;
8058;SDS011;4072;42.668;23.396;2023-03-19T00:47:39;8.53;;;5.63;;
8058;SDS011;4072;42.668;23.396;2023-03-19T00:50:08;9.67;;;6.40;;
8058;SDS011;4072;42.668;23.396;2023-03-19T00:52:36;9.50;;;7.23;;
8058;SDS011;4072;42.668;23.396;2023-03-19T00:55:04;9.20;;;6.33;;
8058;SDS011;4072;42.668;23.396;2023-03-19T00:57:33;10.03;;;6.80;;
8058;SDS011;4072;42.668;23.396;2023-03-19T01:00:03;14.30;;;7.70;;
8058;SDS011;4072;42.668;23.396;2023-03-19T01:02:31;10.33;;;7.70;;
8058;SDS011;4072;42.668;23.396;2023-03-19T01:04:59;9.40;;;7.10;;
8058;SDS011;4072;42.668;23.396;2023-03-19T01:07:26;12.27;;;7.33;;
8058;SDS011;4072;42.668;23.396;2023-03-19T01:09:55;12.80;;;7.03;;
8058;SDS011;4072;42.668;23.396;2023-03-19T01:12:22;21.53;;;14.57;;
8058;SDS011;4072;42.668;23.396;2023-03-19T01:14:50;27.30;;;16.07;;
8058;SDS011;4072;42.668;23.396;2023-03-19T01:17:21;24.53;;;16.37;;
8058;SDS011;4072;42.668;23.396;2023-03-19T01:19:48;23.30;;;14.40;;
8058;SDS011;4072;42.668;23.396;2023-03-19T01:22:16;19.70;;;13.50;;
8058;SDS011;4072;42.668;23.396;2023-03-19T01:24:44;20.17;;;12.77;;
8058;SDS011;4072;42.668;23.396;2023-03-19T01:27:12;19.53;;;12.20;;
8058;SDS011;4072;42.668;23.396;2023-03-19T01:29:40;15.53;;;10.97;;
8058;SDS011;4072;42.668;23.396;2023-03-19T01:32:09;20.63;;;11.40;;
8058;SDS011;4072;42.668;23.396;2023-03-19T01:34:39;21.53;;;12.63;;
8058;SDS011;4072;42.668;23.396;2023-03-19T01:37:07;23.07;;;14.27;;
8058;SDS011;4072;42.668;23.396;2023-03-19T01:39:35;16.27;;;9.70;;
8058;SDS011;4072;42.668;23.396;2023-03-19T01:42:03;18.53;;;11.47;;
8058;SDS011;4072;42.668;23.396;2023-03-19T01:44:32;17.20;;;12.07;;
8058;SDS011;4072;42.668;23.396;2023-03-19T01:47:02;21.60;;;11.23;;
8058;SDS011;4072;42.668;23.396;2023-03-19T01:49:31;19.17;;;10.60;;
8058;SDS011;4072;42.668;23.396;2023-03-19T01:52:01;15.70;;;11.03;;
8058;SDS011;4072;42.668;23.396;2023-03-19T01:54:29;17.43;;;11.47;;
8058;SDS011;4072;42.668;23.396;2023-03-19T01:56:59;17.97;;;13.40;;
8058;SDS011;4072;42.668;23.396;2023-03-19T01:59:29;15.00;;;11.03;;
8058;SDS011;4072;42.668;23.396;2023-03-19T02:02:00;13.20;;;9.27;;
8058;SDS011;4072;42.668;23.396;2023-03-19T02:04:30;17.10;;;11.03;;
8058;SDS011;4072;42.668;23.396;2023-03-19T02:07:01;11.97;;;8.57;;
8058;SDS011;4072;42.668;23.396;2023-03-19T02:09:29;9.83;;;7.70;;
8058;SDS011;4072;42.668;23.396;2023-03-19T02:11:58;12.50;;;6.93;;
8058;SDS011;4072;42.668;23.396;2023-03-19T02:14:27;7.80;;;5.30;;
8058;SDS011;4072;42.668;23.396;2023-03-19T02:16:55;6.13;;;5.30;;
8058;SDS011;4072;42.668;23.396;2023-03-19T02:19:25;9.63;;;5.93;;
8058;SDS011;4072;42.668;23.396;2023-03-19T02:21:55;15.60;;;9.83;;
8058;SDS011;4072;42.668;23.396;2023-03-19T02:24:26;16.07;;;10.20;;
8058;SDS011;4072;42.668;23.396;2023-03-19T02:26:57;14.57;;;10.07;;
8058;SDS011;4072;42.668;23.396;2023-03-19T02:29:26;14.30;;;9.90;;
8058;SDS011;4072;42.668;23.396;2023-03-19T02:31:53;13.60;;;9.37;;
8058;SDS011;4072;42.668;23.396;2023-03-19T02:34:32;10.87;;;8.10;;
8058;SDS011;4072;42.668;23.396;2023-03-19T02:37:01;18.17;;;9.43;;
8058;SDS011;4072;42.668;23.396;2023-03-19T02:39:30;12.80;;;9.47;;
8058;SDS011;4072;42.668;23.396;2023-03-19T02:42:01;15.43;;;9.03;;
8058;SDS011;4072;42.668;23.396;2023-03-19T02:44:29;14.30;;;9.17;;
8058;SDS011;4072;42.668;23.396;2023-03-19T02:46:57;12.70;;;8.90;;
8058;SDS011;4072;42.668;23.396;2023-03-19T02:49:25;11.83;;;8.13;;
8058;SDS011;4072;42.668;23.396;2023-03-19T02:51:53;14.20;;;8.70;;
8058;SDS011;4072;42.668;23.396;2023-03-19T02:54:21;14.83;;;9.07;;
8058;SDS011;4072;42.668;23.396;2023-03-19T02:56:49;11.33;;;8.27;;
8058;SDS011;4072;42.668;23.396;2023-03-19T02:59:19;12.03;;;8.30;;
8058;SDS011;4072;42.668;23.396;2023-03-19T03:01:48;11.43;;;7.53;;
8058;SDS011;4072;42.668;23.396;2023-03-19T03:04:16;9.00;;;5.57;;
8058;SDS011;4072;42.668;23.396;2023-03-19T03:06:44;7.93;;;6.00;;
8058;SDS011;4072;42.668;23.396;2023-03-19T03:09:12;6.67;;;5.43;;
8058;SDS011;4072;42.668;23.396;2023-03-19T03:11:40;8.57;;;5.13;;
8058;SDS011;4072;42.668;23.396;2023-03-19T03:14:08;7.30;;;6.07;;
8058;SDS011;4072;42.668;23.396;2023-03-19T03:16:37;7.40;;;5.63;;
8058;SDS011;4072;42.668;23.396;2023-03-19T03:19:05;9.43;;;7.27;;
8058;SDS011;4072;42.668;23.396;2023-03-19T03:21:33;10.73;;;6.50;;
8058;SDS011;4072;42.668;23.396;2023-03-19T03:24:01;9.30;;;6.87;;
8058;SDS011;4072;42.668;23.396;2023-03-19T03:26:29;11.93;;;7.20;;
8058;SDS011;4072;42.668;23.396;2023-03-19T03:28:57;10.57;;;7.80;;
8058;SDS011;4072;42.668;23.396;2023-03-19T03:31:25;10.20;;;8.27;;
8058;SDS011;4072;42.668;23.396;2023-03-19T03:33:55;11.17;;;8.53;;
8058;SDS011;4072;42.668;23.396;2023-03-19T03:36:23;13.83;;;9.73;;
8058;SDS011;4072;42.668;23.396;2023-03-19T03:38:50;23.97;;;13.53;;
8058;SDS011;4072;42.668;23.396;2023-03-19T03:41:18;17.57;;;11.70;;
8058;SDS011;4072;42.668;23.396;2023-03-19T03:43:47;17.13;;;11.60;;
8058;SDS011;4072;42.668;23.396;2023-03-19T03:46:14;23.97;;;12.30;;
8058;SDS011;4072;42.668;23.396;2023-03-19T03:48:43;17.53;;;12.87;;
8058;SDS011;4072;42.668;23.396;2023-03-19T03:51:12;20.97;;;14.63;;
8058;SDS011;4072;42.668;23.396;2023-03-19T03:53:40;21.67;;;13.43;;
8058;SDS011;4072;42.668;23.396;2023-03-19T03:56:08;16.90;;;11.70;;
8058;SDS011;4072;42.668;23.396;2023-03-19T03:58:36;18.10;;;13.20;;
8058;SDS011;4072;42.668;23.396;2023-03-19T04:01:05;22.90;;;14.67;;
8058;SDS011;4072;42.668;23.396;2023-03-19T04:03:34;24.07;;;14.87;;
8058;SDS011;4072;42.668;23.396;2023-03-19T04:06:02;19.57;;;14.63;;
8058;SDS011;4072;42.668;23.396;2023-03-19T04:08:31;20.90;;;15.07;;
8058;SDS011;4072;42.668;23.396;2023-03-19T04:11:00;20.80;;;15.03;;
8058;SDS011;4072;42.668;23.396;2023-03-19T04:13:32;20.63;;;14.50;;
8058;SDS011;4072;42.668;23.396;2023-03-19T04:16:02;16.20;;;12.63;;
8058;SDS011;4072;42.668;23.396;2023-03-19T04:18:30;19.63;;;13.13;;
8058;SDS011;4072;42.668;23.396;2023-03-19T04:20:58;17.47;;;11.50;;
8058;SDS011;4072;42.668;23.396;2023-03-19T04:23:26;23.37;;;14.47;;
8058;SDS011;4072;42.668;23.396;2023-03-19T04:25:58;27.90;;;13.97;;
8058;SDS011;4072;42.668;23.396;2023-03-19T04:28:27;19.87;;;13.77;;
8058;SDS011;4072;42.668;23.396;2023-03-19T04:30:57;19.30;;;13.13;;
8058;SDS011;4072;42.668;23.396;2023-03-19T04:33:25;19.07;;;13.23;;
8058;SDS011;4072;42.668;23.396;2023-03-19T04:35:53;20.03;;;11.30;;
8058;SDS011;4072;42.668;23.396;2023-03-19T04:38:22;21.57;;;14.63;;
8058;SDS011;4072;42.668;23.396;2023-03-19T04:40:51;17.57;;;12.70;;
8058;SDS011;4072;42.668;23.396;2023-03-19T04:43:21;19.87;;;14.13;;
8058;SDS011;4072;42.668;23.396;2023-03-19T04:45:49;16.23;;;11.83;;
8058;SDS011;4072;42.668;23.396;2023-03-19T04:48:17;14.90;;;10.40;;
8058;SDS011;4072;42.668;23.396;2023-03-19T04:50:45;16.73;;;12.20;;
8058;SDS011;4072;42.668;23.396;2023-03-19T04:53:17;16.10;;;11.27;;
8058;SDS011;4072;42.668;23.396;2023-03-19T04:55:45;13.77;;;9.83;;
8058;SDS011;4072;42.668;23.396;2023-03-19T04:58:13;12.90;;;10.23;;
8058;SDS011;4072;42.668;23.396;2023-03-19T05:00:42;14.47;;;9.23;;
8058;SDS011;4072;42.668;23.396;2023-03-19T05:03:12;8.27;;;6.77;;
8058;SDS011;4072;42.668;23.396;2023-03-19T05:05:40;16.23;;;10.10;;
8058;SDS011;4072;42.668;23.396;2023-03-19T05:08:08;14.50;;;10.73;;
8058;SDS011;4072;42.668;23.396;2023-03-19T05:10:40;16.33;;;10.43;;
8058;SDS011;4072;42.668;23.396;2023-03-19T05:13:08;17.10;;;10.87;;
8058;SDS011;4072;42.668;23.396;2023-03-19T05:15:36;14.13;;;10.37;;
8058;SDS011;4072;42.668;23.396;2023-03-19T05:18:05;16.43;;;10.40;;
8058;SDS011;4072;42.668;23.396;2023-03-19T05:20:34;12.23;;;9.00;;
8058;SDS011;4072;42.668;23.396;2023-03-19T05:23:02;12.60;;;9.17;;
8058;SDS011;4072;42.668;23.396;2023-03-19T05:25:30;15.73;;;11.13;;
8058;SDS011;4072;42.668;23.396;2023-03-19T05:28:00;13.17;;;9.33;;
8058;SDS011;4072;42.668;23.396;2023-03-19T05:30:28;12.83;;;10.37;;
8058;SDS011;4072;42.668;23.396;2023-03-19T05:32:58;14.03;;;9.37;;
8058;SDS011;4072;42.668;23.396;2023-03-19T05:35:28;14.80;;;9.87;;
8058;SDS011;4072;42.668;23.396;2023-03-19T05:37:56;12.97;;;9.10;;
8058;SDS011;4072;42.668;23.396;2023-03-19T05:40:25;14.77;;;9.13;;
8058;SDS011;4072;42.668;23.396;2023-03-19T05:42:53;14.30;;;9.23;;
8058;SDS011;4072;42.668;23.396;2023-03-19T05:45:23;13.90;;;10.00;;
8058;SDS011;4072;42.668;23.396;2023-03-19T05:47:52;12.17;;;8.90;;
8058;SDS011;4072;42.668;23.396;2023-03-19T05:50:20;14.73;;;9.63;;
8058;SDS011;4072;42.668;23.396;2023-03-19T05:52:50;18.47;;;8.90;;
8058;SDS011;4072;42.668;23.396;2023-03-19T05:55:17;14.10;;;8.73;;
8058;SDS011;4072;42.668;23.396;2023-03-19T05:57:45;12.57;;;8.53;;
8058;SDS011;4072;42.668;23.396;2023-03-19T06:00:13;8.83;;;6.40;;
8058;SDS011;4072;42.668;23.396;2023-03-19T06:02:42;11.93;;;7.93;;
8058;SDS011;4072;42.668;23.396;2023-03-19T06:05:10;13.90;;;8.80;;
8058;SDS011;4072;42.668;23.396;2023-03-19T06:07:38;11.60;;;7.90;;
8058;SDS011;4072;42.668;23.396;2023-03-19T06:10:09;14.50;;;8.10;;
8058;SDS011;4072;42.668;23.396;2023-03-19T06:12:37;11.23;;;8.43;;
8058;SDS011;4072;42.668;23.396;2023-03-19T06:15:06;11.93;;;8.63;;
8058;SDS011;4072;42.668;23.396;2023-03-19T06:17:34;10.40;;;6.53;;
8058;SDS011;4072;42.668;23.396;2023-03-19T06:20:05;10.60;;;7.67;;
8058;SDS011;4072;42.668;23.396;2023-03-19T06:22:32;10.33;;;8.37;;
8058;SDS011;4072;42.668;23.396;2023-03-19T06:25:02;13.17;;;8.30;;
8058;SDS011;4072;42.668;23.396;2023-03-19T06:27:32;8.40;;;7.43;;
8058;SDS011;4072;42.668;23.396;2023-03-19T06:30:00;12.40;;;7.80;;
8058;SDS011;4072;42.668;23.396;2023-03-19T06:32:28;13.83;;;9.30;;
8058;SDS011;4072;42.668;23.396;2023-03-19T06:34:56;11.67;;;8.40;;
8058;SDS011;4072;42.668;23.396;2023-03-19T06:37:24;15.03;;;11.10;;
8058;SDS011;4072;42.668;23.396;2023-03-19T06:39:52;15.77;;;10.33;;
8058;SDS011;4072;42.668;23.396;2023-03-19T06:42:21;13.87;;;10.33;;
8058;SDS011;4072;42.668;23.396;2023-03-19T06:44:50;11.00;;;8.83;;
8058;SDS011;4072;42.668;23.396;2023-03-19T06:47:20;12.30;;;9.20;;
8058;SDS011;4072;42.668;23.396;2023-03-19T06:49:47;11.70;;;8.70;;
8058;SDS011;4072;42.668;23.396;2023-03-19T06:52:15;10.97;;;8.93;;
8058;SDS011;4072;42.668;23.396;2023-03-19T06:54:46;10.97;;;8.90;;
8058;SDS011;4072;42.668;23.396;2023-03-19T06:57:15;9.17;;;8.23;;
8058;SDS011;4072;42.668;23.396;2023-03-19T06:59:43;14.67;;;8.60;;
8058;SDS011;4072;42.668;23.396;2023-03-19T07:02:12;12.47;;;8.00;;
8058;SDS011;4072;42.668;23.396;2023-03-19T07:04:40;11.40;;;8.13;;
8058;SDS011;4072;42.668;23.396;2023-03-19T07:07:08;11.97;;;8.70;;
8058;SDS011;4072;42.668;23.396;2023-03-19T07:09:36;11.13;;;9.10;;
8058;SDS011;4072;42.668;23.396;2023-03-19T07:12:05;13.23;;;9.33;;
8058;SDS011;4072;42.668;23.396;2023-03-19T07:14:33;10.93;;;8.17;;
8058;SDS011;4072;42.668;23.396;2023-03-19T07:17:01;13.03;;;10.20;;
8058;SDS011;4072;42.668;23.396;2023-03-19T07:19:30;14.93;;;10.63;;
8058;SDS011;4072;42.668;23.396;2023-03-19T07:21:58;13.23;;;9.73;;
8058;SDS011;4072;42.668;23.396;2023-03-19T07:24:26;10.60;;;8.60;;
8058;SDS011;4072;42.668;23.396;2023-03-19T07:26:54;14.57;;;9.13;;
8058;SDS011;4072;42.668;23.396;2023-03-19T07:29:22;12.43;;;8.77;;
8058;SDS011;4072;42.668;23.396;2023-03-19T07:31:50;10.70;;;8.70;;
8058;SDS011;4072;42.668;23.396;2023-03-19T07:34:18;14.03;;;9.13;;
8058;SDS011;4072;42.668;23.396;2023-03-19T07:36:48;8.37;;;6.63;;
8058;SDS011;4072;42.668;23.396;2023-03-19T07:39:17;11.20;;;7.40;;
8058;SDS011;4072;42.668;23.396;2023-03-19T07:41:45;10.73;;;8.13;;
8058;SDS011;4072;42.668;23.396;2023-03-19T07:44:14;9.63;;;7.47;;
8058;SDS011;4072;42.668;23.396;2023-03-19T07:46:42;11.37;;;8.50;;
8058;SDS011;4072;42.668;23.396;2023-03-19T07:49:10;9.70;;;8.07;;
8058;SDS011;4072;42.668;23.396;2023-03-19T07:51:37;10.20;;;8.07;;
8058;SDS011;4072;42.668;23.396;2023-03-19T07:54:07;8.43;;;7.13;;
8058;SDS011;4072;42.668;23.396;2023-03-19T07:56:34;8.27;;;7.27;;
8058;SDS011;4072;42.668;23.396;2023-03-19T07:59:03;11.43;;;8.40;;
8058;SDS011;4072;42.668;23.396;2023-03-19T08:01:31;11.93;;;9.10;;
8058;SDS011;4072;42.668;23.396;2023-03-19T08:03:59;13.50;;;8.03;;
8058;SDS011;4072;42.668;23.396;2023-03-19T08:06:28;10.13;;;7.67;;
8058;SDS011;4072;42.668;23.396;2023-03-19T08:08:57;8.57;;;7.23;;
8058;SDS011;4072;42.668;23.396;2023-03-19T08:11:26;9.10;;;7.27;;
8058;SDS011;4072;42.668;23.396;2023-03-19T08:13:55;9.97;;;6.97;;
8058;SDS011;4072;42.668;23.396;2023-03-19T08:16:23;9.77;;;7.50;;
8058;SDS011;4072;42.668;23.396;2023-03-19T08:18:52;8.53;;;7.30;;
8058;SDS011;4072;42.668;23.396;2023-03-19T08:21:20;8.50;;;7.07;;
8058;SDS011;4072;42.668;23.396;2023-03-19T08:23:48;9.00;;;7.37;;
8058;SDS011;4072;42.668;23.396;2023-03-19T08:26:16;12.73;;;7.53;;
8058;SDS011;4072;42.668;23.396;2023-03-19T08:28:46;7.27;;;6.40;;
8058;SDS011;4072;42.668;23.396;2023-03-19T08:31:14;10.87;;;6.27;;
8058;SDS011;4072;42.668;23.396;2023-03-19T08:33:42;9.57;;;6.80;;
8058;SDS011;4072;42.668;23.396;2023-03-19T08:36:11;15.03;;;10.23;;
8058;SDS011;4072;42.668;23.396;2023-03-19T08:38:39;8.43;;;7.47;;
8058;SDS011;4072;42.668;23.396;2023-03-19T08:41:09;10.53;;;6.73;;
8058;SDS011;4072;42.668;23.396;2023-03-19T08:43:37;8.20;;;6.63;;
8058;SDS011;4072;42.668;23.396;2023-03-19T08:46:06;6.73;;;5.63;;
8058;SDS011;4072;42.668;23.396;2023-03-19T08:48:35;7.17;;;6.23;;
8058;SDS011;4072;42.668;23.396;2023-03-19T08:51:06;6.83;;;5.83;;
8058;SDS011;4072;42.668;23.396;2023-03-19T08:53:35;7.00;;;6.20;;
8058;SDS011;4072;42.668;23.396;2023-03-19T08:56:04;10.07;;;6.20;;
8058;SDS011;4072;42.668;23.396;2023-03-19T08:58:33;6.40;;;4.93;;
8058;SDS011;4072;42.668;23.396;2023-03-19T09:01:01;11.67;;;7.80;;
8058;SDS011;4072;42.668;23.396;2023-03-19T09:03:31;6.93;;;6.13;;
8058;SDS011;4072;42.668;23.396;2023-03-19T09:05:59;7.37;;;5.67;;
8058;SDS011;4072;42.668;23.396;2023-03-19T09:08:29;6.43;;;5.83;;
8058;SDS011;4072;42.668;23.396;2023-03-19T09:10:57;7.83;;;5.70;;
8058;SDS011;4072;42.668;23.396;2023-03-19T09:13:26;7.43;;;6.03;;
8058;SDS011;4072;42.668;23.396;2023-03-19T09:15:54;10.07;;;6.47;;
8058;SDS011;4072;42.668;23.396;2023-03-19T09:18:22;10.93;;;6.67;;
8058;SDS011;4072;42.668;23.396;2023-03-19T09:20:52;9.93;;;7.00;;
8058;SDS011;4072;42.668;23.396;2023-03-19T09:23:20;10.50;;;7.67;;
8058;SDS011;4072;42.668;23.396;2023-03-19T09:25:49;9.50;;;7.17;;
8058;SDS011;4072;42.668;23.396;2023-03-19T09:28:17;8.27;;;7.17;;
8058;SDS011;4072;42.668;23.396;2023-03-19T09:30:45;9.17;;;7.23;;
8058;SDS011;4072;42.668;23.396;2023-03-19T09:33:15;9.47;;;7.23;;
8058;SDS011;4072;42.668;23.396;2023-03-19T09:35:47;6.87;;;5.90;;
8058;SDS011;4072;42.668;23.396;2023-03-19T09:38:18;7.97;;;5.53;;
8058;SDS011;4072;42.668;23.396;2023-03-19T09:40:47;6.73;;;6.00;;
8058;SDS011;4072;42.668;23.396;2023-03-19T09:43:24;10.17;;;5.97;;
8058;SDS011;4072;42.668;23.396;2023-03-19T09:45:54;7.17;;;6.07;;
8058;SDS011;4072;42.668;23.396;2023-03-19T09:48:24;8.43;;;6.10;;
8058;SDS011;4072;42.668;23.396;2023-03-19T09:50:56;8.80;;;6.27;;
8058;SDS011;4072;42.668;23.396;2023-03-19T09:53:29;5.67;;;5.10;;
8058;SDS011;4072;42.668;23.396;2023-03-19T09:56:02;7.83;;;5.70;;
8058;SDS011;4072;42.668;23.396;2023-03-19T09:58:32;7.93;;;5.53;;
8058;SDS011;4072;42.668;23.396;2023-03-19T10:01:01;7.83;;;6.73;;
8058;SDS011;4072;42.668;23.396;2023-03-19T10:03:41;7.27;;;5.97;;
8058;SDS011;4072;42.668;23.396;2023-03-19T10:06:14;8.67;;;6.57;;
8058;SDS011;4072;42.668;23.396;2023-03-19T10:08:59;8.93;;;6.70;;
8058;SDS011;4072;42.668;23.396;2023-03-19T10:11:42;8.03;;;6.50;;
8058;SDS011;4072;42.668;23.396;2023-03-19T10:14:18;9.83;;;6.63;;
8058;SDS011;4072;42.668;23.396;2023-03-19T10:16:50;7.53;;;6.80;;
8058;SDS011;4072;42.668;23.396;2023-03-19T10:19:20;8.67;;;7.00;;
8058;SDS011;4072;42.668;23.396;2023-03-19T10:21:49;5.70;;;5.07;;
8058;SDS011;4072;42.668;23.396;2023-03-19T10:24:21;7.40;;;6.30;;
8058;SDS011;4072;42.668;23.396;2023-03-19T10:26:54;7.23;;;5.60;;
8058;SDS011;4072;42.668;23.396;2023-03-19T10:29:23;9.30;;;6.47;;
8058;SDS011;4072;42.668;23.396;2023-03-19T10:31:53;10.83;;;6.00;;
8058;SDS011;4072;42.668;23.396;2023-03-19T10:34:27;7.30;;;6.10;;
8058;SDS011;4072;42.668;23.396;2023-03-19T10:36:57;7.87;;;6.03;;
8058;SDS011;4072;42.668;23.396;2023-03-19T10:39:27;6.27;;;5.63;;
8058;SDS011;4072;42.668;23.396;2023-03-19T10:41:58;6.57;;;5.03;;
8058;SDS011;4072;42.668;23.396;2023-03-19T10:44:27;7.17;;;5.93;;
8058;SDS011;4072;42.668;23.396;2023-03-19T10:46:57;8.63;;;5.93;;
8058;SDS011;4072;42.668;23.396;2023-03-19T10:49:26;9.37;;;6.40;;
8058;SDS011;4072;42.668;23.396;2023-03-19T10:51:55;7.37;;;5.90;;
8058;SDS011;4072;42.668;23.396;2023-03-19T10:54:24;8.03;;;6.27;;
8058;SDS011;4072;42.668;23.396;2023-03-19T10:56:55;6.40;;;5.23;;
8058;SDS011;4072;42.668;23.396;2023-03-19T10:59:24;6.50;;;4.53;;
8058;SDS011;4072;42.668;23.396;2023-03-19T11:01:56;6.63;;;5.40;;
8058;SDS011;4072;42.668;23.396;2023-03-19T11:04:24;8.57;;;6.10;;
8058;SDS011;4072;42.668;23.396;2023-03-19T11:06:54;6.90;;;5.17;;
8058;SDS011;4072;42.668;23.396;2023-03-19T11:09:25;9.03;;;5.67;;
8058;SDS011;4072;42.668;23.396;2023-03-19T11:11:56;6.40;;;5.20;;
8058;SDS011;4072;42.668;23.396;2023-03-19T11:14:27;7.53;;;5.37;;
8058;SDS011;4072;42.668;23.396;2023-03-19T11:17:01;9.27;;;4.63;;
8058;SDS011;4072;42.668;23.396;2023-03-19T11:19:32;6.07;;;4.97;;
8058;SDS011;4072;42.668;23.396;2023-03-19T11:22:02;5.07;;;4.20;;
8058;SDS011;4072;42.668;23.396;2023-03-19T11:24:35;5.83;;;4.57;;
8058;SDS011;4072;42.668;23.396;2023-03-19T11:27:05;6.00;;;5.40;;
8058;SDS011;4072;42.668;23.396;2023-03-19T11:29:33;7.13;;;5.17;;
8058;SDS011;4072;42.668;23.396;2023-03-19T11:32:07;7.20;;;5.63;;
8058;SDS011;4072;42.668;23.396;2023-03-19T11:34:48;8.00;;;4.90;;
8058;SDS011;4072;42.668;23.396;2023-03-19T11:37:21;7.70;;;5.77;;
8058;SDS011;4072;42.668;23.396;2023-03-19T11:39:57;6.50;;;5.00;;
8058;SDS011;4072;42.668;23.396;2023-03-19T11:45:18;8.57;;;6.10;;
8058;SDS011;4072;42.668;23.396;2023-03-19T11:47:49;6.07;;;5.17;;
8058;SDS011;4072;42.668;23.396;2023-03-19T11:50:22;5.10;;;4.60;;
8058;SDS011;4072;42.668;23.396;2023-03-19T11:52:58;8.23;;;5.67;;
8058;SDS011;4072;42.668;23.396;2023-03-19T11:55:30;4.87;;;4.37;;
8058;SDS011;4072;42.668;23.396;2023-03-19T12:00:49;5.73;;;4.67;;
8058;SDS011;4072;42.668;23.396;2023-03-19T12:03:24;6.77;;;5.23;;
8058;SDS011;4072;42.668;23.396;2023-03-19T12:05:58;5.23;;;4.50;;
8058;SDS011;4072;42.668;23.396;2023-03-19T12:08:29;6.87;;;4.97;;
8058;SDS011;4072;42.668;23.396;2023-03-19T12:11:00;5.30;;;4.47;;
8058;SDS011;4072;42.668;23.396;2023-03-19T12:13:33;4.60;;;3.83;;
8058;SDS011;4072;42.668;23.396;2023-03-19T12:16:07;4.83;;;3.37;;
8058;SDS011;4072;42.668;23.396;2023-03-19T12:21:33;5.40;;;3.63;;
8058;SDS011;4072;42.668;23.396;2023-03-19T12:24:09;5.40;;;3.87;;
8058;SDS011;4072;42.668;23.396;2023-03-19T12:26:42;4.07;;;3.53;;
8058;SDS011;4072;42.668;23.396;2023-03-19T12:29:18;6.07;;;3.33;;
8058;SDS011;4072;42.668;23.396;2023-03-19T12:31:56;3.87;;;2.90;;
8058;SDS011;4072;42.668;23.396;2023-03-19T12:34:32;4.60;;;3.53;;
8058;SDS011;4072;42.668;23.396;2023-03-19T12:37:04;5.47;;;3.17;;
8058;SDS011;4072;42.668;23.396;2023-03-19T12:39:35;4.17;;;3.77;;
8058;SDS011;4072;42.668;23.396;2023-03-19T12:42:05;5.10;;;3.37;;
8058;SDS011;4072;42.668;23.396;2023-03-19T12:44:35;6.60;;;4.30;;
8058;SDS011;4072;42.668;23.396;2023-03-19T12:47:05;6.07;;;3.30;;
8058;SDS011;4072;42.668;23.396;2023-03-19T12:49:35;3.93;;;3.07;;
8058;SDS011;4072;42.668;23.396;2023-03-19T12:52:06;4.03;;;2.90;;
8058;SDS011;4072;42.668;23.396;2023-03-19T12:54:35;3.23;;;2.90;;
8058;SDS011;4072;42.668;23.396;2023-03-19T12:57:09;4.03;;;3.33;;
8058;SDS011;4072;42.668;23.396;2023-03-19T12:59:39;4.50;;;3.07;;
8058;SDS011;4072;42.668;23.396;2023-03-19T13:02:15;4.00;;;3.30;;
8058;SDS011;4072;42.668;23.396;2023-03-19T13:04:46;4.13;;;3.10;;
8058;SDS011;4072;42.668;23.396;2023-03-19T13:07:17;5.43;;;3.50;;
8058;SDS011;4072;42.668;23.396;2023-03-19T13:09:48;2.93;;;2.17;;
8058;SDS011;4072;42.668;23.396;2023-03-19T13:12:19;3.17;;;1.97;;
8058;SDS011;4072;42.668;23.396;2023-03-19T13:14:51;2.87;;;2.50;;
8058;SDS011;4072;42.668;23.396;2023-03-19T13:17:27;3.23;;;2.60;;
8058;SDS011;4072;42.668;23.396;2023-03-19T13:20:08;2.50;;;2.30;;
8058;SDS011;4072;42.668;23.396;2023-03-19T13:22:42;2.73;;;2.00;;
8058;SDS011;4072;42.668;23.396;2023-03-19T13:25:13;2.57;;;2.30;;
8058;SDS011;4072;42.668;23.396;2023-03-19T13:27:42;3.97;;;2.60;;
8058;SDS011;4072;42.668;23.396;2023-03-19T13:30:16;4.17;;;3.77;;
8058;SDS011;4072;42.668;23.396;2023-03-19T13:32:47;3.27;;;2.80;;
8058;SDS011;4072;42.668;23.396;2023-03-19T13:35:19;3.93;;;3.20;;
8058;SDS011;4072;42.668;23.396;2023-03-19T13:37:53;3.53;;;2.60;;
8058;SDS011;4072;42.668;23.396;2023-03-19T13:40:38;2.70;;;2.50;;
8058;SDS011;4072;42.668;23.396;2023-03-19T13:54:53;4.13;;;2.47;;
8058;SDS011;4072;42.668;23.396;2023-03-19T13:57:31;3.77;;;1.90;;
8058;SDS011;4072;42.668;23.396;2023-03-19T14:02:46;2.63;;;2.00;;
8058;SDS011;4072;42.668;23.396;2023-03-19T14:05:16;2.17;;;1.97;;
8058;SDS011;4072;42.668;23.396;2023-03-19T14:07:46;3.20;;;1.80;;
8058;SDS011;4072;42.668;23.396;2023-03-19T14:10:20;6.77;;;1.90;;
8058;SDS011;4072;42.668;23.396;2023-03-19T14:13:03;2.60;;;1.73;;
8058;SDS011;4072;42.668;23.396;2023-03-19T14:15:32;2.47;;;1.87;;
8058;SDS011;4072;42.668;23.396;2023-03-19T14:18:02;1.77;;;1.60;;
8058;SDS011;4072;42.668;23.396;2023-03-19T14:20:32;3.00;;;2.60;;
8058;SDS011;4072;42.668;23.396;2023-03-19T14:23:11;2.43;;;2.23;;
8058;SDS011;4072;42.668;23.396;2023-03-19T14:26:01;4.27;;;1.67;;
8058;SDS011;4072;42.668;23.396;2023-03-19T14:28:33;2.30;;;2.10;;
8058;SDS011;4072;42.668;23.396;2023-03-19T14:31:02;1.97;;;1.80;;
8058;SDS011;4072;42.668;23.396;2023-03-19T14:33:32;2.57;;;1.80;;
8058;SDS011;4072;42.668;23.396;2023-03-19T14:36:03;2.73;;;1.83;;
8058;SDS011;4072;42.668;23.396;2023-03-19T14:38:33;3.73;;;2.53;;
8058;SDS011;4072;42.668;23.396;2023-03-19T14:41:05;2.20;;;2.00;;
8058;SDS011;4072;42.668;23.396;2023-03-19T14:43:41;4.20;;;2.23;;
8058;SDS011;4072;42.668;23.396;2023-03-19T14:46:16;1.53;;;1.30;;
8058;SDS011;4072;42.668;23.396;2023-03-19T14:48:57;2.00;;;1.80;;
8058;SDS011;4072;42.668;23.396;2023-03-19T14:51:35;2.37;;;1.90;;
8058;SDS011;4072;42.668;23.396;2023-03-19T14:54:14;3.53;;;2.30;;
8058;SDS011;4072;42.668;23.396;2023-03-19T14:56:48;4.10;;;1.37;;
8058;SDS011;4072;42.668;23.396;2023-03-19T14:59:16;2.07;;;1.97;;
8058;SDS011;4072;42.668;23.396;2023-03-19T15:01:47;2.43;;;1.73;;
8058;SDS011;4072;42.668;23.396;2023-03-19T15:04:16;5.23;;;2.43;;
8058;SDS011;4072;42.668;23.396;2023-03-19T15:06:45;2.90;;;2.00;;
8058;SDS011;4072;42.668;23.396;2023-03-19T15:09:17;3.17;;;2.23;;
8058;SDS011;4072;42.668;23.396;2023-03-19T15:11:52;3.67;;;2.03;;
8058;SDS011;4072;42.668;23.396;2023-03-19T15:14:38;2.33;;;1.97;;
8058;SDS011;4072;42.668;23.396;2023-03-19T15:17:12;3.13;;;2.37;;
8058;SDS011;4072;42.668;23.396;2023-03-19T15:19:43;2.50;;;2.13;;
8058;SDS011;4072;42.668;23.396;2023-03-19T15:22:12;2.60;;;2.33;;
8058;SDS011;4072;42.668;23.396;2023-03-19T15:24:41;2.00;;;1.90;;
8058;SDS011;4072;42.668;23.396;2023-03-19T15:27:17;4.40;;;1.90;;
8058;SDS011;4072;42.668;23.396;2023-03-19T15:29:45;2.80;;;1.90;;
8058;SDS011;4072;42.668;23.396;2023-03-19T15:32:32;2.10;;;1.90;;